Saturday, August 18, 2018, 1:52 PM EDT
Back to Local

KSBY, Salisbury-wicomico Cty Reg

Location: Salisbury, MD, United States Lat: 38.333
Local Time: 1:52 PM EDT (17:52 GMT) Lon: -75.5
Time Zone: US/Eastern Elev: 52 ft

Show me the last for .
Show Coded

Time T Td Feel RH Dir Speed Gust Alt SLP Vis Weather Sky Remarks
2018-08-18 12:54 86 76 96 72 240° 8 - 29.88 29.88 10 FEW025 None
2018-08-18 11:54 85 76 94 74 220° 9 - 29.90 29.90 10 FEW020 None
2018-08-18 10:54 84 76 93 76 240° 7 - 29.91 29.91 10 FEW018 None
2018-08-18 10:06 82 76 90 81 240° 10 - 29.92 - 10 SCT018 None
2018-08-18 09:54 83 76 91 79 250° 9 - 29.91 29.92 10 BKN019 None
2018-08-18 08:54 82 76 90 81 260° 13 - 29.92 29.92 10 BKN020 None
2018-08-18 07:54 80 76 87 87 240° 14 - 29.92 29.92 10 CLR 6-hr Min Temp (8am): 75.9°F
6-hr Max Temp (8am): 80.1°F
2018-08-18 06:54 77 76 83 96 200° 7 - 29.92 29.92 10 CLR None
2018-08-18 05:54 76 76 82 100 200° 6 - 29.92 29.93 10 CLR None
2018-08-18 04:54 77 76 83 96 200° 5 - 29.93 29.93 10 CLR None
2018-08-18 03:54 78 76 84 93 200° 6 - 29.94 29.94 10 CLR None
2018-08-18 02:54 79 77 86 93 200° 7 - 29.95 29.95 10 CLR None
2018-08-18 01:54 80 78 89 93 210° 8 - 29.97 29.97 10 SCT060 6-hr Min Temp (2am): 79.0°F
6-hr Max Temp (2am): 82.0°F
2018-08-18 00:54 80 78 89 93 210° 8 - 29.97 29.97 9 FEW050 24-hr Min Temp (1am): 70.0°F
24-hr Max Temp (1am): 91.9°F
2018-08-17 23:54 79 78 87 97 200° 6 - 29.96 29.97 10 CLR None
2018-08-17 22:54 79 77 86 93 190° 6 - 29.97 29.97 10 CLR None
2018-08-17 21:54 79 77 86 93 190° 7 - 29.98 29.98 10 CLR None
2018-08-17 20:54 80 76 87 87 170° 6 - 29.98 29.98 10 CLR None
2018-08-17 19:54 82 76 90 81 170° 6 - 29.98 29.99 9 CLR 6-hr Min Temp (8pm): 82.0°F
6-hr Max Temp (8pm): 91.9°F
2018-08-17 18:54 84 76 93 76 160° 8 - 29.99 29.99 10 CLR None
2018-08-17 17:54 89 73 98 59 190° 10 - 29.99 29.99 10 CLR None
2018-08-17 16:54 91 69 97 48 210° 14 - 30.00 30.00 10 CLR None
2018-08-17 15:54 92 71 100 50 200° 14 - 30.01 30.02 10 CLR None
2018-08-17 14:54 91 73 100 55 210° 13 - 30.03 30.03 10 SCT046 None
2018-08-17 13:54 91 73 100 55 240° 9 - 30.05 30.05 10 CLR 6-hr Min Temp (2pm): 75.9°F
6-hr Max Temp (2pm): 91.0°F

Support USWX by starting your Amazon purchase here.